• Join FlightAware (Why Join?)
  • Login
  • US Flag 
10:17PM EDT


 

Airport Tracker/Info


-or-


 

Live Flight TrackerFlight Track Log ✈ JZA8193 ✈ 04-Jun-2013 ✈ CYKA - CYVR

Flight Track Log - Related Links

Times and Time Zones

All times are in EDT time to prevent confusion due to time zone crossing. See the JZA8193 flight status page for this flight to view local times or setup timezone preferences in your user account.

Time Position Orientation Groundspeed Altitude Reporting Facility
EDT Latitude Longitude Course Direction KTS MPH feet Rate Location/Type
02:47PM 50.7000 -120.5000 225° Southwest 140 161 3,200  Level Vancouver Center
02:48PM 50.7167 -120.5833 288° West 150 173 4,500 1,260 Climbing Vancouver Center
02:49PM 50.7000 -120.6333 242° Southwest 150 173 5,800 1,200 Climbing Vancouver Center
02:50PM 50.6500 -120.6833 212° Southwest 170 196 7,000 1,200 Climbing Vancouver Center
02:51PM 50.6167 -120.7167 212° Southwest 180 207 8,300 1,380 Climbing Vancouver Center
02:52PM 50.4273 -120.8227 213° Southwest  Level FlightAware Approximate
02:52PM 50.5667 -120.7833 220° Southwest 180 207 9,800  Level Vancouver Center
02:53PM 50.3825 -120.8871 225° Southwest  Level FlightAware Approximate
02:53PM 50.5333 -120.8333 224° Southwest 180 207 11,200  Level Vancouver Center
02:54PM 50.4833 -120.8833 212° Southwest 180 207 12,500 1,140 Climbing Vancouver Center
02:55PM 50.4500 -120.9167 212° Southwest 180 207 13,500 960 Climbing Vancouver Center
02:56PM 50.4000 -120.9667 213° Southwest 180 207 14,500 960 Climbing Vancouver Center
02:57PM 50.3667 -121.0167 224° Southwest 190 219 15,500 660 Climbing Vancouver Center
02:58PM 50.3167 -121.0833 220° Southwest 190 219 15,900 180 Climbing Vancouver Center
02:59PM 50.2833 -121.1333 224° Southwest 230 265 15,900  Level Vancouver Center
03:00PM 50.2333 -121.1833 213° Southwest 240 276 15,900  Level Vancouver Center
03:01PM 50.1667 -121.2667 219° Southwest 250 288 15,900  Level Vancouver Center
03:02PM 50.1167 -121.3333 221° Southwest 260 299 15,900  Level Vancouver Center
03:03PM 50.0667 -121.4000 221° Southwest 260 299 16,000  Climbing Vancouver Center
03:04PM 50.0000 -121.4833 219° Southwest 260 299 16,000  Level Vancouver Center
03:05PM 49.9500 -121.5667 227° Southwest 260 299 16,000  Level Vancouver Center
03:06PM 49.9000 -121.6167 213° Southwest 250 288 16,000  Level Vancouver Center
03:07PM 49.8333 -121.7000 219° Southwest 260 299 16,000 -60 Level Vancouver Center
03:08PM 49.8000 -121.7833 238° Southwest 250 288 15,900 -240 Descending Vancouver Center
03:09PM 49.7333 -121.8667 219° Southwest 260 299 15,600 -540 Descending Vancouver Center
03:10PM 49.6833 -121.9333 221° Southwest 270 311 14,900 -840 Descending Vancouver Center
03:11PM 49.6333 -122.0167 227° Southwest 280 322 14,000 -960 Descending Vancouver Center
03:12PM 49.5667 -122.1000 219° Southwest 290 334 13,000 -1,020 Descending Vancouver Center
03:13PM 49.5167 -122.1833 227° Southwest 290 334 12,000 -1,200 Descending Vancouver Center
03:14PM 49.4500 -122.2667 219° Southwest 280 322 10,700 -1,020 Descending Vancouver Center
03:15PM 49.4000 -122.3333 221° Southwest 270 311 10,000 -540 Descending Vancouver Center
03:16PM 49.3500 -122.4167 227° Southwest 260 299 9,700 -480 Descending Vancouver Center
03:17PM 49.3000 -122.5000 227° Southwest 260 299 9,100 -720 Descending Vancouver Center
03:18PM 49.2500 -122.5667 221° Southwest 250 288 8,300 -1,200 Descending Vancouver Center
03:19PM 49.2000 -122.6500 227° Southwest 240 276 6,700 -1,560 Descending Vancouver Center
03:20PM 49.1667 -122.7333 239° Southwest 230 265 5,200 -1,500 Descending Vancouver Center
03:21PM 49.1500 -122.8000 249° West 220 253 3,800 -1,020 Descending Vancouver Center
03:22PM 49.1500 -122.9000 270° West 210 242 3,200 -840 Descending Vancouver Center
03:23PM 49.1667 -122.9833 287° West 210 242 2,200 -900 Descending Vancouver Center
03:24PM 49.1667 -123.0667 270° West 170 196 1,500 -780 Descending Vancouver Center
03:25PM 49.1833 -123.1167 297° West 140 161 700 -840 Descending Vancouver Center